createdAt,value
2022-08-26T00:00:51.755Z,100348.41
2022-08-26T00:03:19.380Z,100341.25
2022-08-26T00:05:47.203Z,100355.22
2022-08-26T00:08:17.546Z,100350.47
2022-08-26T00:10:45.314Z,100347.63
2022-08-26T00:13:19.486Z,100349.19
2022-08-26T00:15:53.003Z,100353.56
2022-08-26T00:18:46.514Z,100352.13
2022-08-26T00:21:31.866Z,100351.19
2022-08-26T00:23:58.732Z,100357.88
2022-08-26T00:26:29.176Z,100352.13
2022-08-26T00:28:56.611Z,100352.69
2022-08-26T00:31:23.534Z,100365.16
2022-08-26T00:33:50.720Z,100357.81
2022-08-26T00:36:20.098Z,100356.88
2022-08-26T00:38:50.453Z,100363.31
2022-08-26T00:41:56.665Z,100353.63
2022-08-26T00:44:24.137Z,100364.41
2022-08-26T00:47:36.234Z,100364.66
2022-08-26T00:50:10.934Z,100362.28
2022-08-26T00:52:38.116Z,100361.56
2022-08-26T00:55:19.718Z,100360.56
2022-08-26T00:57:49.340Z,100358.91
2022-08-26T01:00:21.585Z,100359.06
2022-08-26T01:02:49.907Z,100366.84
2022-08-26T01:05:19.143Z,100367.31
2022-08-26T01:07:46.829Z,100361.94
2022-08-26T01:10:18.305Z,100362.91
2022-08-26T01:12:50.003Z,100367.31
2022-08-26T01:15:23.297Z,100367.81
2022-08-26T01:17:50.838Z,100362.66
2022-08-26T01:21:13.673Z,100366.56
2022-08-26T01:23:49.531Z,100373.47
2022-08-26T01:26:23.244Z,100365.66
2022-08-26T01:28:54.036Z,100369.91
2022-08-26T01:31:24.912Z,100370.03
2022-08-26T01:33:57.616Z,100369.63
2022-08-26T01:36:25.007Z,100371.16
2022-08-26T01:38:52.939Z,100369.56
2022-08-26T01:41:27.354Z,100372.06
2022-08-26T01:43:57.872Z,100378.34
2022-08-26T01:46:32.927Z,100380.34
2022-08-26T01:49:04.806Z,100378.06
2022-08-26T01:51:37.355Z,100378.72
2022-08-26T01:54:07.717Z,100372.06
2022-08-26T01:56:39.680Z,100376.56
2022-08-26T01:59:10.664Z,100370.31
2022-08-26T02:01:39.492Z,100375.22
2022-08-26T02:04:24.419Z,100383.06
2022-08-26T02:06:53.061Z,100376.91
2022-08-26T02:09:20.896Z,100376.91
2022-08-26T02:11:48.584Z,100381.31
2022-08-26T02:14:29.022Z,100383.06
2022-08-26T02:16:56.711Z,100381.31
2022-08-26T02:19:30.413Z,100384.31
2022-08-26T02:22:02.962Z,100379.06
2022-08-26T02:24:47.369Z,100385.66
2022-08-26T02:27:15.084Z,100387.97
2022-08-26T02:29:47.966Z,100371.94
2022-08-26T02:32:18.631Z,100380.34
2022-08-26T02:34:46.257Z,100383.22
2022-08-26T02:37:14.292Z,100373.84
2022-08-26T02:39:44.704Z,100375.16
2022-08-26T02:42:12.420Z,100371.22
2022-08-26T02:44:39.676Z,100387.38
2022-08-26T02:47:08.644Z,100383.31
2022-08-26T02:49:37.741Z,100380.22
2022-08-26T02:52:04.791Z,100378.22
2022-08-26T02:54:31.704Z,100376.47
2022-08-26T02:57:00.271Z,100375.19
2022-08-26T02:59:27.192Z,100378.75
2022-08-26T03:01:57.889Z,100368.84
2022-08-26T03:04:25.846Z,100379.16
2022-08-26T03:06:53.676Z,100385.72
2022-08-26T03:09:22.403Z,100382.72
2022-08-26T03:11:53.235Z,100375.22
2022-08-26T03:14:21.021Z,100375.47
2022-08-26T03:16:48.598Z,100375.94
2022-08-26T03:19:15.568Z,100381.91
2022-08-26T03:21:44.632Z,100375.75
2022-08-26T03:24:16.566Z,100375.41
2022-08-26T03:26:52.340Z,100373.25
2022-08-26T03:29:39.900Z,100367.88
2022-08-26T03:32:07.072Z,100366.94
2022-08-26T03:34:34.291Z,100368.13
2022-08-26T03:37:01.562Z,100363.72
2022-08-26T03:39:31.664Z,100367.91
2022-08-26T03:42:00.116Z,100363.66
2022-08-26T03:44:27.007Z,100363.66
2022-08-26T03:46:55.047Z,100358.16
2022-08-26T03:49:22.992Z,100351.84
2022-08-26T03:51:50.093Z,100351.59
2022-08-26T03:54:18.215Z,100360.44
2022-08-26T03:56:46.421Z,100354.47
2022-08-26T03:59:13.693Z,100350.75
2022-08-26T04:01:40.737Z,100350.66
2022-08-26T04:04:07.720Z,100347.66
2022-08-26T04:06:39.226Z,100353.13
2022-08-26T04:09:09.486Z,100346.00
2022-08-26T04:11:39.539Z,100352.66
2022-08-26T04:14:11.293Z,100347.19
2022-08-26T04:16:39.001Z,100338.00
2022-08-26T04:19:06.717Z,100344.53
2022-08-26T04:21:35.235Z,100339.16
2022-08-26T04:24:03.683Z,100337.13
2022-08-26T04:26:37.052Z,100336.03
2022-08-26T04:29:11.003Z,100337.69
2022-08-26T04:31:38.916Z,100337.69
2022-08-26T04:34:07.147Z,100332.22
2022-08-26T04:36:34.712Z,100338.56
2022-08-26T04:39:03.525Z,100336.41
2022-08-26T04:41:31.725Z,100332.81
2022-08-26T04:43:58.910Z,100332.56
2022-08-26T04:46:27.985Z,100331.50
2022-08-26T04:48:55.443Z,100335.09
2022-08-26T04:51:28.043Z,100331.84
2022-08-26T04:53:57.256Z,100336.28
2022-08-26T04:56:33.056Z,100330.16
2022-08-26T04:59:01.394Z,100337.22
2022-08-26T05:01:31.615Z,100333.16
2022-08-26T05:03:59.296Z,100336.84
2022-08-26T05:06:28.208Z,100334.56
2022-08-26T05:09:02.322Z,100336.28
2022-08-26T05:11:29.980Z,100341.06
2022-08-26T05:14:01.629Z,100351.69
2022-08-26T05:16:30.409Z,100343.19
2022-08-26T05:18:57.639Z,100337.38
2022-08-26T05:21:27.361Z,100339.06
2022-08-26T05:23:57.107Z,100349.72
2022-08-26T05:26:27.197Z,100343.72
2022-08-26T05:28:55.342Z,100344.31
2022-08-26T05:31:26.373Z,100341.81
2022-08-26T05:33:53.893Z,100344.22
2022-08-26T05:36:23.693Z,100347.44
2022-08-26T05:38:54.217Z,100342.53
2022-08-26T05:41:36.849Z,100346.59
2022-08-26T05:44:13.944Z,100341.22
2022-08-26T05:46:42.285Z,100343.75
2022-08-26T05:49:12.244Z,100353.03
2022-08-26T05:51:40.976Z,100345.41
2022-08-26T05:54:07.870Z,100341.00
2022-08-26T05:56:39.149Z,100354.00
2022-08-26T05:59:14.530Z,100353.53
2022-08-26T06:01:42.625Z,100356.66
2022-08-26T06:04:09.936Z,100354.22
2022-08-26T06:06:41.286Z,100358.41
2022-08-26T06:09:11.220Z,100359.81
2022-08-26T06:11:41.439Z,100354.94
2022-08-26T06:14:14.175Z,100356.97
2022-08-26T06:16:45.260Z,100358.72
2022-08-26T06:19:17.889Z,100358.00
2022-08-26T06:21:47.253Z,100360.72
2022-08-26T06:24:36.620Z,100360.25
2022-08-26T06:27:09.713Z,100362.84
2022-08-26T06:29:39.078Z,100362.47
2022-08-26T06:32:06.921Z,100361.13
2022-08-26T06:34:35.594Z,100351.84
2022-08-26T06:37:06.470Z,100356.59
2022-08-26T06:39:34.011Z,100360.25
2022-08-26T06:42:06.221Z,100357.88
2022-08-26T06:49:17.306Z,100357.75
2022-08-26T06:51:44.585Z,100349.63
2022-08-26T06:54:11.641Z,100349.28
2022-08-26T06:56:43.120Z,100358.94
2022-08-26T06:59:12.082Z,100358.44
2022-08-26T07:01:44.922Z,100357.75
2022-08-26T07:04:15.468Z,100358.53
2022-08-26T07:06:49.001Z,100362.63
2022-08-26T07:09:17.545Z,100362.03
2022-08-26T07:11:48.300Z,100365.94
2022-08-26T07:14:17.002Z,100362.31
2022-08-26T07:16:49.974Z,100363.09
2022-08-26T07:19:29.107Z,100368.75
2022-08-26T07:22:03.666Z,100362.59
2022-08-26T07:24:36.571Z,100368.03
2022-08-26T07:27:06.375Z,100368.41
2022-08-26T07:29:35.170Z,100369.88
2022-08-26T07:32:02.603Z,100362.75
2022-08-26T07:34:30.018Z,100366.13
2022-08-26T07:36:57.207Z,100372.81
2022-08-26T07:39:26.663Z,100368.44
2022-08-26T07:41:54.219Z,100372.34
2022-08-26T07:44:21.434Z,100363.00
2022-08-26T07:46:53.292Z,100375.75
2022-08-26T07:49:25.294Z,100370.50
2022-08-26T07:51:53.481Z,100373.28
2022-08-26T07:54:26.869Z,100368.00
2022-08-26T07:56:55.872Z,100370.75
2022-08-26T07:59:24.301Z,100374.38
2022-08-26T08:01:51.781Z,100373.53
2022-08-26T08:04:26.229Z,100372.16
2022-08-26T08:06:54.084Z,100367.44
2022-08-26T08:09:21.071Z,100374.09
2022-08-26T08:11:50.196Z,100373.53
2022-08-26T08:14:22.058Z,100373.81
2022-08-26T08:16:51.046Z,100381.31
2022-08-26T08:22:58.755Z,100380.19
2022-08-26T08:25:26.072Z,100365.81
2022-08-26T08:27:53.450Z,100375.19
2022-08-26T08:30:24.183Z,100373.25
2022-08-26T08:32:53.131Z,100367.44
2022-08-26T08:35:24.223Z,100370.78
2022-08-26T08:37:54.918Z,100371.91
2022-08-26T08:44:33.106Z,100362.19
2022-08-26T08:50:34.110Z,100368.56
2022-08-26T08:53:25.276Z,100370.50
2022-08-26T08:56:11.202Z,100368.53
2022-08-26T08:58:57.363Z,100368.50
2022-08-26T09:01:52.563Z,100360.72
2022-08-26T09:04:39.399Z,100366.56
2022-08-26T09:07:13.671Z,100361.56
2022-08-26T09:09:49.217Z,100362.06
2022-08-26T09:12:29.806Z,100360.69
2022-08-26T09:15:03.851Z,100354.56
2022-08-26T09:17:32.961Z,100361.78
2022-08-26T09:20:45.554Z,100357.31
2022-08-26T09:23:13.324Z,100350.97
2022-08-26T09:25:52.274Z,100356.75
2022-08-26T09:28:22.116Z,100345.03
2022-08-26T09:31:17.484Z,100348.03
2022-08-26T09:33:44.794Z,100350.06
2022-08-26T09:36:35.413Z,100351.72
2022-08-26T09:39:25.621Z,100346.72
2022-08-26T09:42:16.655Z,100345.31
2022-08-26T09:45:02.022Z,100346.31
2022-08-26T09:47:41.982Z,100346.25
2022-08-26T09:50:39.283Z,100342.41
2022-08-26T09:53:14.713Z,100344.03
2022-08-26T09:55:47.864Z,100337.84
2022-08-26T09:58:33.453Z,100335.34
2022-08-26T10:01:02.501Z,100330.47
2022-08-26T10:03:35.596Z,100329.34
2022-08-26T10:06:06.579Z,100333.69
2022-08-26T10:08:38.696Z,100331.44
2022-08-26T10:11:28.494Z,100336.63
2022-08-26T10:14:00.912Z,100338.56
2022-08-26T10:16:34.704Z,100335.75
2022-08-26T10:19:09.670Z,100335.16
2022-08-26T10:21:52.168Z,100337.13
2022-08-26T10:24:32.165Z,100335.41
2022-08-26T10:27:23.091Z,100323.38
2022-08-26T10:29:54.659Z,100331.66
2022-08-26T10:32:45.905Z,100324.41
2022-08-26T10:35:16.103Z,100326.03
2022-08-26T10:37:56.253Z,100325.19
2022-08-26T10:40:30.847Z,100326.50
2022-08-26T10:43:10.510Z,100323.53
2022-08-26T10:45:50.887Z,100323.22
2022-08-26T10:48:35.521Z,100316.47
2022-08-26T10:51:04.535Z,100315.28
2022-08-26T10:53:59.095Z,100307.75
2022-08-26T10:56:37.718Z,100307.16
2022-08-26T10:59:12.409Z,100303.72
2022-08-26T11:01:47.192Z,100304.97
2022-08-26T11:04:34.997Z,100302.31
2022-08-26T11:07:39.839Z,100305.38
2022-08-26T11:10:22.984Z,100302.13
2022-08-26T11:13:07.430Z,100307.06
2022-08-26T11:15:37.119Z,100299.06
2022-08-26T11:18:12.729Z,100300.06
2022-08-26T11:20:45.977Z,100301.34
2022-08-26T11:23:14.533Z,100291.97
2022-08-26T11:25:57.519Z,100300.72
2022-08-26T11:28:35.672Z,100300.81
2022-08-26T11:31:04.534Z,100305.41
2022-08-26T11:33:44.220Z,100300.81
2022-08-26T11:36:28.090Z,100304.28
2022-08-26T11:38:55.410Z,100303.53
2022-08-26T11:41:29.523Z,100307.16
2022-08-26T11:43:59.461Z,100303.53
2022-08-26T11:46:31.577Z,100302.19
2022-08-26T11:49:06.048Z,100306.69
2022-08-26T11:51:39.699Z,100293.25
2022-08-26T11:54:15.990Z,100295.47
2022-08-26T11:56:48.813Z,100302.75
2022-08-26T11:59:24.153Z,100305.41
2022-08-26T12:01:53.838Z,100293.53
2022-08-26T12:04:30.452Z,100299.06
2022-08-26T12:06:59.380Z,100299.97
2022-08-26T12:09:34.630Z,100297.09
2022-08-26T12:12:22.167Z,100290.94
2022-08-26T12:14:49.496Z,100293.53
2022-08-26T12:17:19.690Z,100286.31
2022-08-26T12:19:49.564Z,100291.75
2022-08-26T12:22:20.988Z,100290.69
2022-08-26T12:25:11.480Z,100286.91
2022-08-26T12:27:43.274Z,100289.69
2022-08-26T12:30:15.645Z,100291.72
2022-08-26T12:32:52.850Z,100287.59
2022-08-26T12:35:31.329Z,100282.84
2022-08-26T12:37:59.453Z,100284.09
2022-08-26T12:40:44.569Z,100290.81
2022-08-26T12:43:17.334Z,100289.28
2022-08-26T12:46:02.930Z,100286.03
2022-08-26T12:48:38.697Z,100283.94
2022-08-26T12:51:21.919Z,100285.56
2022-08-26T12:53:48.786Z,100281.69
2022-08-26T12:56:39.896Z,100289.38
2022-08-26T12:59:11.242Z,100283.31
2022-08-26T13:01:45.206Z,100289.69
2022-08-26T13:04:33.410Z,100279.59
2022-08-26T13:11:21.185Z,100278.63
2022-08-26T13:13:54.028Z,100280.72
2022-08-26T13:16:22.304Z,100282.22
2022-08-26T13:19:03.235Z,100276.09
2022-08-26T13:21:43.139Z,100269.47
2022-08-26T13:24:19.189Z,100262.13
2022-08-26T13:26:49.391Z,100263.47
2022-08-26T13:29:19.524Z,100267.69
2022-08-26T13:31:48.222Z,100268.88
2022-08-26T13:34:19.574Z,100263.75
2022-08-26T13:36:47.783Z,100266.28
2022-08-26T13:39:14.905Z,100256.78
2022-08-26T13:42:00.701Z,100259.69
2022-08-26T13:44:32.007Z,100255.66
2022-08-26T13:47:00.170Z,100261.59
2022-08-26T13:49:29.693Z,100256.78
2022-08-26T13:51:56.811Z,100253.28
2022-08-26T13:54:23.836Z,100247.38
2022-08-26T13:56:51.457Z,100243.97
2022-08-26T13:59:18.312Z,100253.22
2022-08-26T14:01:45.239Z,100244.97
2022-08-26T14:04:12.085Z,100252.00
2022-08-26T14:06:39.083Z,100244.34
2022-08-26T14:09:05.999Z,100248.38
2022-08-26T14:11:49.053Z,100249.13
2022-08-26T14:14:20.139Z,100245.03
2022-08-26T14:16:56.083Z,100242.72
2022-08-26T14:19:27.996Z,100242.56
2022-08-26T14:21:54.928Z,100241.72
2022-08-26T14:24:22.564Z,100237.97
2022-08-26T14:26:49.688Z,100235.31
2022-08-26T14:29:17.374Z,100242.19
2022-08-26T14:31:44.814Z,100235.19
2022-08-26T14:34:13.906Z,100235.09
2022-08-26T14:36:40.760Z,100230.28
2022-08-26T14:39:10.473Z,100231.31
2022-08-26T14:41:45.261Z,100227.75
2022-08-26T14:44:26.876Z,100227.50
2022-08-26T14:46:54.643Z,100230.22
2022-08-26T14:49:23.830Z,100231.44
2022-08-26T14:51:50.711Z,100225.22
2022-08-26T14:54:18.684Z,100219.44
2022-08-26T14:57:00.494Z,100220.91
2022-08-26T14:59:30.298Z,100218.00
2022-08-26T15:01:57.645Z,100221.19
2022-08-26T15:04:25.378Z,100214.63
2022-08-26T15:06:54.753Z,100214.31
2022-08-26T15:09:23.096Z,100216.72
2022-08-26T15:26:18.976Z,100197.63
2022-08-26T15:28:46.094Z,100199.19
2022-08-26T15:31:13.139Z,100197.66
2022-08-26T15:33:41.507Z,100203.53
2022-08-26T15:36:09.700Z,100205.75
2022-08-26T15:38:44.587Z,100196.25
2022-08-26T15:41:11.848Z,100202.16
2022-08-26T15:43:40.261Z,100193.38
2022-08-26T15:46:11.136Z,100197.06
2022-08-26T15:48:38.953Z,100196.19
2022-08-26T15:51:08.017Z,100187.09
2022-08-26T15:53:35.788Z,100191.94
2022-08-26T15:56:03.224Z,100185.72
2022-08-26T15:58:30.161Z,100186.84
2022-08-26T16:00:58.422Z,100185.72
2022-08-26T16:03:25.262Z,100189.13
2022-08-26T16:05:52.380Z,100186.34
2022-08-26T16:08:19.708Z,100180.38
2022-08-26T16:10:50.693Z,100183.81
2022-08-26T16:13:20.100Z,100186.47
2022-08-26T16:15:51.067Z,100181.50
2022-08-26T16:21:27.907Z,100177.22
2022-08-26T16:23:56.264Z,100176.06
2022-08-26T16:26:32.936Z,100171.63
2022-08-26T16:29:03.231Z,100169.72
2022-08-26T16:31:31.324Z,100174.09
2022-08-26T16:33:58.458Z,100169.66
2022-08-26T16:36:28.152Z,100172.13
2022-08-26T16:38:56.517Z,100165.22
2022-08-26T16:41:29.662Z,100172.13
2022-08-26T16:47:25.322Z,100161.31
2022-08-26T16:49:52.865Z,100166.00
2022-08-26T16:52:20.046Z,100163.44
2022-08-26T16:54:47.978Z,100175.84
2022-08-26T16:57:15.124Z,100159.00
2022-08-26T16:59:43.296Z,100161.84
2022-08-26T17:02:13.003Z,100161.44
2022-08-26T17:04:40.159Z,100161.03
2022-08-26T17:07:07.660Z,100163.13
2022-08-26T17:09:34.638Z,100166.13
2022-08-26T17:13:34.852Z,100159.50
2022-08-26T17:20:20.773Z,100164.25
2022-08-26T17:22:50.109Z,100158.16
2022-08-26T17:25:30.073Z,100172.22
2022-08-26T17:30:30.833Z,100158.16
2022-08-26T17:32:58.007Z,100153.00
2022-08-26T17:35:25.531Z,100160.66
2022-08-26T17:37:53.025Z,100166.13
2022-08-26T17:40:23.081Z,100153.63
2022-08-26T17:43:02.545Z,100158.16
2022-08-26T17:45:29.426Z,100152.38
2022-08-26T17:52:14.955Z,100160.09
2022-08-26T17:54:42.909Z,100159.66
2022-08-26T17:57:18.811Z,100160.81
2022-08-26T17:59:45.970Z,100154.00
2022-08-26T18:02:14.261Z,100160.38
2022-08-26T18:04:42.059Z,100155.38
2022-08-26T18:07:09.455Z,100156.28
2022-08-26T18:10:13.064Z,100147.50
2022-08-26T18:12:41.899Z,100144.31
2022-08-26T18:22:45.795Z,100152.72
2022-08-26T18:25:17.432Z,100155.63
2022-08-26T18:27:44.818Z,100160.22
2022-08-26T18:30:19.712Z,100152.03
2022-08-26T18:32:48.485Z,100162.97
2022-08-26T18:47:32.205Z,100165.84
2022-08-26T18:50:01.049Z,100172.31
2022-08-26T18:52:28.356Z,100176.53
2022-08-26T18:58:34.417Z,100167.84
2022-08-26T19:04:28.224Z,100171.59
2022-08-26T19:06:57.311Z,100172.22
2022-08-26T19:09:29.190Z,100169.25
2022-08-26T19:15:02.960Z,100167.69
2022-08-26T19:17:30.429Z,100171.63
2022-08-26T19:20:46.675Z,100171.97
2022-08-26T19:23:33.947Z,100177.81
2022-08-26T19:26:04.473Z,100178.13
2022-08-26T19:28:43.176Z,100187.56
2022-08-26T19:31:11.879Z,100191.22
2022-08-26T19:33:42.557Z,100187.38
2022-08-26T19:36:15.041Z,100190.75
2022-08-26T20:16:25.694Z,100218.28
2022-08-26T20:20:01.595Z,100218.03
2022-08-26T20:22:28.606Z,100221.59
2022-08-26T20:24:56.843Z,100227.97
2022-08-26T20:27:37.858Z,100226.28
2022-08-26T20:30:07.521Z,100219.09
2022-08-26T20:32:37.572Z,100222.44
2022-08-26T20:48:21.960Z,100234.88
2022-08-26T20:54:07.603Z,100236.81
2022-08-26T20:59:53.505Z,100244.88
2022-08-26T21:02:28.689Z,100253.41
2022-08-26T21:04:55.686Z,100246.78
2022-08-26T21:07:22.595Z,100256.47
2022-08-26T21:09:49.883Z,100251.22
2022-08-26T21:12:18.562Z,100253.97
2022-08-26T21:14:49.062Z,100244.84
2022-08-26T21:23:43.835Z,100245.97
2022-08-26T21:33:24.078Z,100247.56
2022-08-26T21:36:01.569Z,100248.97
2022-08-26T21:42:08.237Z,100248.41
2022-08-26T21:44:35.569Z,100253.66
2022-08-26T21:47:03.529Z,100253.66
2022-08-26T21:49:30.858Z,100257.78
2022-08-26T21:51:57.750Z,100251.72
2022-08-26T21:54:24.642Z,100253.63
2022-08-26T21:57:00.209Z,100259.44
2022-08-26T21:59:27.282Z,100263.34
2022-08-26T22:01:54.709Z,100262.50
2022-08-26T22:04:21.801Z,100266.66
2022-08-26T22:06:51.991Z,100267.78
2022-08-26T22:09:25.251Z,100268.59
2022-08-26T22:11:53.285Z,100268.31
2022-08-26T22:14:30.503Z,100277.72
2022-08-26T22:17:23.493Z,100279.38
2022-08-26T22:19:51.119Z,100274.41
2022-08-26T22:22:18.697Z,100274.38
2022-08-26T22:24:45.616Z,100271.03
2022-08-26T22:27:13.944Z,100273.53
2022-08-26T22:29:41.224Z,100274.91
2022-08-26T22:32:08.260Z,100267.94
2022-08-26T22:34:35.215Z,100267.94
2022-08-26T22:37:03.254Z,100270.41
2022-08-26T22:39:30.074Z,100264.88
2022-08-26T22:41:57.528Z,100267.66
2022-08-26T22:44:52.097Z,100266.28
2022-08-26T22:47:18.968Z,100269.88
2022-08-26T22:49:45.791Z,100272.09
2022-08-26T22:52:12.705Z,100263.78
2022-08-26T22:54:39.613Z,100262.13
2022-08-26T22:57:07.292Z,100266.28
2022-08-26T22:59:34.488Z,100267.91
2022-08-26T23:02:01.923Z,100272.94
2022-08-26T23:04:29.286Z,100274.31
2022-08-26T23:06:56.091Z,100276.53
2022-08-26T23:09:22.953Z,100276.00
2022-08-26T23:12:01.125Z,100277.69
2022-08-26T23:14:27.990Z,100273.53
2022-08-26T23:16:54.986Z,100277.13
2022-08-26T23:19:27.903Z,100273.25
2022-08-26T23:21:54.752Z,100282.13
2022-08-26T23:24:22.705Z,100288.50
2022-08-26T23:26:49.659Z,100279.06
2022-08-26T23:29:16.522Z,100282.16
2022-08-26T23:31:44.299Z,100280.47
2022-08-26T23:34:29.975Z,100276.63
2022-08-26T23:36:59.058Z,100277.69
2022-08-26T23:39:27.159Z,100267.47
2022-08-26T23:41:54.240Z,100272.19
2022-08-26T23:44:21.402Z,100280.50
2022-08-26T23:46:49.543Z,100281.63
2022-08-26T23:49:18.019Z,100284.38
2022-08-26T23:52:03.401Z,100275.50
2022-08-26T23:54:31.684Z,100278.28
2022-08-26T23:56:59.481Z,100277.19
2022-08-26T23:59:26.272Z,100274.16
